Time;durP1;ratioP1;P1;durP2;ratioP2;P2;SDS_P1;SDS_P2;PMS_P1;PMS_P2;Temp;Humidity;BMP_temperature;BMP_pressure;BME280_temperature;BME280_humidity;BME280_pressure;Samples;Min_cycle;Max_cycle;Signal;HPM_P1;HPM_P2
2023/12/15 00:01:16;;;;;;;39.85;25.63;;;5.60;92.90;;;;;;5053277;28;20821;-76
2023/12/15 00:03:42;;;;;;;39.90;23.77;;;5.80;89.20;;;;;;5052470;28;20385;-74
2023/12/15 00:06:08;;;;;;;37.13;24.30;;;5.70;90.70;;;;;;5051994;28;20432;-74
2023/12/15 00:08:33;;;;;;;43.55;25.20;;;5.70;91.10;;;;;;5051707;28;20397;-77
2023/12/15 00:10:59;;;;;;;39.50;25.23;;;5.70;90.10;;;;;;5050750;28;20370;-74
2023/12/15 00:13:25;;;;;;;39.97;24.13;;;5.60;90.60;;;;;;5051931;28;20383;-75
2023/12/15 00:15:50;;;;;;;37.67;23.75;;;5.90;89.90;;;;;;5052017;28;20382;-75
2023/12/15 00:18:16;;;;;;;38.30;24.20;;;5.80;86.90;;;;;;5052017;28;20389;-75
2023/12/15 00:20:42;;;;;;;40.65;25.08;;;5.70;89.60;;;;;;5051801;28;20384;-74
2023/12/15 00:23:08;;;;;;;41.58;24.63;;;5.70;89.70;;;;;;5051724;28;20392;-73
2023/12/15 00:25:33;;;;;;;35.63;23.52;;;5.60;89.90;;;;;;5051574;28;20876;-75
2023/12/15 00:27:59;;;;;;;37.35;24.25;;;5.70;92.40;;;;;;5050778;28;20398;-75
2023/12/15 00:30:24;;;;;;;39.28;24.50;;;5.80;90.00;;;;;;5051527;28;20742;-74
2023/12/15 00:32:50;;;;;;;37.80;24.20;;;5.70;90.00;;;;;;5051463;28;20382;-74
2023/12/15 00:35:15;;;;;;;38.38;23.83;;;5.80;90.80;;;;;;5051471;28;20393;-74
2023/12/15 00:37:41;;;;;;;40.53;25.80;;;5.80;92.40;;;;;;5051196;28;20390;-75
2023/12/15 00:40:10;;;;;;;37.17;23.98;;;5.80;92.00;;;;;;5051491;28;20389;-74
2023/12/15 00:42:35;;;;;;;36.55;23.75;;;5.80;92.80;;;;;;5051919;28;20389;-74
2023/12/15 00:45:01;;;;;;;37.80;23.03;;;5.90;91.30;;;;;;5052008;28;20415;-75
2023/12/15 00:47:26;;;;;;;34.17;22.80;;;6.40;89.80;;;;;;5051862;28;20748;-75
2023/12/15 00:49:52;;;;;;;34.20;21.88;;;6.40;84.70;;;;;;5051449;28;20737;-75
2023/12/15 00:52:18;;;;;;;38.37;23.00;;;6.30;86.50;;;;;;5051604;28;20450;-74
2023/12/15 00:54:43;;;;;;;36.50;22.50;;;6.20;88.00;;;;;;5051828;28;20472;-75
2023/12/15 00:57:09;;;;;;;39.73;22.57;;;6.20;86.20;;;;;;5052168;28;20393;-74
2023/12/15 00:59:34;;;;;;;35.73;22.80;;;6.30;84.70;;;;;;5051670;28;20393;-74
2023/12/15 01:02:00;;;;;;;40.73;23.27;;;6.10;86.70;;;;;;5051225;28;20392;-76
2023/12/15 01:04:26;;;;;;;36.93;22.13;;;6.00;88.90;;;;;;5051293;28;20400;-75
2023/12/15 01:06:51;;;;;;;37.30;21.80;;;6.00;90.00;;;;;;5051915;28;20405;-76
2023/12/15 01:09:17;;;;;;;37.17;21.80;;;6.10;88.30;;;;;;5051427;28;20381;-74
2023/12/15 01:11:42;;;;;;;38.07;22.17;;;6.10;89.40;;;;;;5060374;28;20381;-74
2023/12/15 01:14:08;;;;;;;38.93;22.00;;;6.10;87.30;;;;;;5071097;28;20871;-74
2023/12/15 01:16:33;;;;;;;37.33;21.63;;;6.10;87.70;;;;;;5069041;28;20396;-75
2023/12/15 01:18:59;;;;;;;39.60;22.27;;;6.10;88.80;;;;;;5067314;28;20471;-74
2023/12/15 01:21:24;;;;;;;40.50;23.10;;;6.00;88.50;;;;;;5065957;28;20400;-75
2023/12/15 01:23:50;;;;;;;37.13;22.50;;;6.00;89.20;;;;;;5067833;28;20428;-74
2023/12/15 01:26:17;;;;;;;38.33;21.97;;;5.90;89.80;;;;;;5068540;28;20413;-74
2023/12/15 01:28:43;;;;;;;34.38;21.15;;;6.10;92.10;;;;;;5060565;28;20382;-75
2023/12/15 01:31:08;;;;;;;38.25;21.58;;;6.10;86.90;;;;;;5051225;28;20435;-74
2023/12/15 01:33:34;;;;;;;35.55;20.80;;;6.00;89.70;;;;;;5051721;28;20389;-76
2023/12/15 01:35:59;;;;;;;38.50;22.30;;;6.00;91.20;;;;;;5052306;28;20373;-75
2023/12/15 01:38:25;;;;;;;41.88;23.63;;;6.00;90.80;;;;;;5052771;28;20400;-76
2023/12/15 01:40:50;;;;;;;38.17;22.10;;;6.00;89.90;;;;;;5051841;28;20386;-74
2023/12/15 01:43:16;;;;;;;35.08;21.60;;;6.00;90.40;;;;;;5052442;28;20389;-74
2023/12/15 01:45:42;;;;;;;38.70;22.60;;;6.00;89.20;;;;;;5057958;28;20386;-75
2023/12/15 01:48:07;;;;;;;42.05;22.95;;;5.90;90.10;;;;;;5065603;28;20471;-75
2023/12/15 01:50:33;;;;;;;35.72;22.27;;;5.90;91.30;;;;;;5060008;28;20381;-75
2023/12/15 01:52:58;;;;;;;37.75;22.45;;;6.00;91.30;;;;;;5059176;28;20898;-75
2023/12/15 01:55:24;;;;;;;35.28;20.63;;;6.00;91.30;;;;;;5054640;28;20891;-75
2023/12/15 01:57:50;;;;;;;36.30;21.20;;;6.10;91.50;;;;;;5052575;28;20473;-74
2023/12/15 02:00:16;;;;;;;37.40;21.00;;;6.00;90.80;;;;;;5055559;28;20400;-75
2023/12/15 02:02:41;;;;;;;36.17;21.77;;;6.10;92.40;;;;;;5058460;28;20389;-74
2023/12/15 02:05:07;;;;;;;40.90;21.53;;;6.10;92.00;;;;;;5056048;28;20385;-74
2023/12/15 02:07:32;;;;;;;39.73;22.00;;;6.00;94.00;;;;;;5056961;28;20436;-75
2023/12/15 02:09:58;;;;;;;37.83;21.13;;;6.20;91.60;;;;;;5059041;28;20435;-74
2023/12/15 02:12:24;;;;;;;36.80;21.77;;;6.20;91.80;;;;;;5059277;28;20400;-75
2023/12/15 02:14:49;;;;;;;38.00;21.40;;;6.20;92.50;;;;;;5058051;28;20388;-74
2023/12/15 02:17:15;;;;;;;38.60;21.20;;;6.30;91.00;;;;;;5059802;28;20393;-75
2023/12/15 02:19:41;;;;;;;42.53;20.80;;;6.20;89.70;;;;;;5059141;28;20385;-76
2023/12/15 02:22:06;;;;;;;37.97;21.27;;;6.10;90.90;;;;;;5067189;28;20369;-74
2023/12/15 02:24:32;;;;;;;37.25;20.40;;;6.10;91.20;;;;;;5082335;22;20385;-73
2023/12/15 02:26:57;;;;;;;32.75;19.85;;;6.20;90.80;;;;;;5093312;28;20441;-75
2023/12/15 02:29:26;;;;;;;35.53;19.95;;;6.20;89.70;;;;;;5102531;28;20378;-75
2023/12/15 02:31:52;;;;;;;37.58;20.40;;;6.20;89.70;;;;;;5095434;28;20435;-75
2023/12/15 02:34:18;;;;;;;35.08;20.48;;;6.20;90.20;;;;;;5089568;28;20883;-73
2023/12/15 02:36:43;;;;;;;43.07;22.23;;;6.20;89.90;;;;;;5070420;28;20723;-74
2023/12/15 02:39:09;;;;;;;37.40;20.50;;;6.10;91.10;;;;;;5070298;28;20405;-74
2023/12/15 02:41:35;;;;;;;38.07;21.10;;;6.10;93.30;;;;;;5070319;28;20869;-74
2023/12/15 02:44:00;;;;;;;40.10;21.53;;;6.20;93.50;;;;;;5070176;28;20387;-73
2023/12/15 02:46:26;;;;;;;39.92;21.70;;;6.20;93.10;;;;;;5070397;28;20494;-73
2023/12/15 02:48:52;;;;;;;42.20;21.45;;;6.30;92.10;;;;;;5068629;28;20387;-74
2023/12/15 02:51:25;;;;;;;40.50;22.70;;;6.20;95.20;;;;;;5071397;28;20803;-73
2023/12/15 02:53:50;;;;;;;39.25;21.90;;;6.10;96.60;;;;;;5074191;28;20422;-73
2023/12/15 02:56:16;;;;;;;38.60;21.87;;;6.10;99.00;;;;;;5055502;28;20753;-74
2023/12/15 02:58:41;;;;;;;38.90;21.90;;;6.20;97.30;;;;;;5073369;28;20938;-73
2023/12/15 03:01:07;;;;;;;43.37;22.93;;;6.30;96.80;;;;;;5055688;28;20391;-74
2023/12/15 03:03:33;;;;;;;41.03;21.90;;;6.30;97.30;;;;;;5055474;28;20473;-73
2023/12/15 03:05:59;;;;;;;40.60;22.10;;;6.20;98.40;;;;;;5073430;28;20463;-74
2023/12/15 03:08:27;;;;;;;39.40;21.70;;;6.20;99.10;;;;;;5073436;28;20456;-74
2023/12/15 03:10:57;;;;;;;43.78;22.80;;;6.10;99.90;;;;;;5055195;28;20387;-73
2023/12/15 03:13:23;;;;;;;39.33;21.42;;;6.20;99.90;;;;;;5055186;28;20384;-73
2023/12/15 03:15:48;;;;;;;43.35;22.23;;;6.20;99.90;;;;;;5073146;28;20394;-74
2023/12/15 03:18:14;;;;;;;44.50;22.03;;;6.20;99.90;;;;;;5073361;28;20384;-74
2023/12/15 03:20:39;;;;;;;40.17;20.80;;;6.20;99.90;;;;;;5073297;28;20482;-74
2023/12/15 03:23:05;;;;;;;43.85;22.23;;;6.30;99.90;;;;;;5071752;28;20384;-74
2023/12/15 03:25:30;;;;;;;47.70;22.60;;;6.50;99.90;;;;;;5073013;28;20785;-73
2023/12/15 03:27:56;;;;;;;39.88;22.42;;;6.50;97.70;;;;;;5073197;28;20494;-74
2023/12/15 03:30:22;;;;;;;36.65;21.25;;;6.40;99.90;;;;;;5072800;28;20395;-75
2023/12/15 03:32:47;;;;;;;41.40;22.13;;;6.40;99.90;;;;;;5072555;28;20823;-73
2023/12/15 03:35:13;;;;;;;40.00;22.20;;;6.50;99.90;;;;;;5072902;28;20780;-74
2023/12/15 03:37:38;;;;;;;45.63;21.80;;;6.40;99.90;;;;;;5072743;28;20878;-73
2023/12/15 03:40:04;;;;;;;40.70;21.80;;;6.40;99.90;;;;;;5072893;28;20749;-74
2023/12/15 03:42:30;;;;;;;40.85;22.15;;;6.50;99.90;;;;;;5072679;28;20383;-76
2023/12/15 03:44:55;;;;;;;38.93;21.53;;;6.60;99.90;;;;;;5054737;28;20509;-75
2023/12/15 03:47:21;;;;;;;35.17;20.88;;;6.60;99.90;;;;;;5072319;28;20410;-73
2023/12/15 03:49:46;;;;;;;43.00;22.05;;;6.80;98.60;;;;;;5072687;28;20384;-73
2023/12/15 03:52:12;;;;;;;43.45;21.85;;;6.70;99.10;;;;;;5072759;28;20817;-73
2023/12/15 03:54:37;;;;;;;43.42;22.38;;;6.60;99.90;;;;;;5072196;28;20394;-74
2023/12/15 03:57:03;;;;;;;43.70;23.50;;;6.70;99.90;;;;;;5054738;28;20371;-73
2023/12/15 03:59:29;;;;;;;41.92;22.20;;;6.70;99.90;;;;;;5072633;28;20411;-75
2023/12/15 04:01:55;;;;;;;41.10;22.73;;;6.70;99.90;;;;;;5071642;28;20466;-74
2023/12/15 04:04:20;;;;;;;41.47;22.42;;;6.60;99.90;;;;;;5072459;28;20469;-75
2023/12/15 04:06:46;;;;;;;44.03;23.33;;;6.50;99.90;;;;;;5054466;28;20399;-72
2023/12/15 04:09:11;;;;;;;40.88;23.40;;;6.50;99.90;;;;;;5072379;28;20858;-74
2023/12/15 04:11:37;;;;;;;39.53;22.65;;;6.60;99.90;;;;;;5072130;28;20786;-74
2023/12/15 04:14:04;;;;;;;45.03;23.88;;;6.70;99.90;;;;;;5072156;28;20774;-74
2023/12/15 04:16:30;;;;;;;41.93;23.43;;;6.60;99.90;;;;;;5072082;28;20887;-74
2023/12/15 04:18:57;;;;;;;38.95;23.13;;;6.60;99.90;;;;;;5071967;28;20380;-72
2023/12/15 04:21:23;;;;;;;43.83;24.40;;;6.40;99.90;;;;;;5072034;28;20388;-73
2023/12/15 04:23:49;;;;;;;41.80;23.70;;;6.40;99.90;;;;;;5070804;28;20501;-74
2023/12/15 04:26:15;;;;;;;43.45;22.17;;;6.50;99.90;;;;;;5072249;28;20404;-73
2023/12/15 04:28:41;;;;;;;45.33;24.10;;;6.60;99.90;;;;;;5072497;28;20383;-74
2023/12/15 04:31:06;;;;;;;42.20;24.90;;;6.50;99.90;;;;;;5071893;28;20436;-73
2023/12/15 04:33:32;;;;;;;46.77;24.27;;;6.40;99.90;;;;;;5072095;28;20387;-73
2023/12/15 04:35:58;;;;;;;41.42;23.65;;;6.50;99.90;;;;;;5073064;28;20761;-73
2023/12/15 04:38:23;;;;;;;43.38;24.27;;;6.60;99.90;;;;;;5069400;28;20384;-74
2023/12/15 04:40:50;;;;;;;41.13;23.13;;;6.70;99.90;;;;;;5072039;28;20404;-75
2023/12/15 04:43:16;;;;;;;41.58;24.40;;;6.70;99.90;;;;;;5046718;28;20916;-74
2023/12/15 04:45:41;;;;;;;42.35;24.25;;;6.60;99.90;;;;;;5051465;28;20385;-73
2023/12/15 04:48:07;;;;;;;46.90;24.50;;;6.60;99.90;;;;;;5067121;28;20820;-73
2023/12/15 04:50:32;;;;;;;47.42;24.25;;;6.70;99.90;;;;;;5072948;28;20383;-74
2023/12/15 04:52:58;;;;;;;44.87;24.83;;;6.80;99.90;;;;;;5072110;28;20854;-73
2023/12/15 04:55:23;;;;;;;48.80;25.10;;;6.70;99.90;;;;;;5069912;28;20774;-74
2023/12/15 04:57:49;;;;;;;43.83;24.60;;;6.70;99.90;;;;;;5068500;28;20389;-76
2023/12/15 05:00:15;;;;;;;47.20;24.27;;;6.80;99.90;;;;;;5071169;28;20892;-74
2023/12/15 05:02:40;;;;;;;44.13;24.93;;;6.60;99.90;;;;;;5072642;28;20395;-74
2023/12/15 05:05:07;;;;;;;45.03;24.93;;;6.60;99.90;;;;;;5070607;28;20410;-74
2023/12/15 05:07:33;;;;;;;50.08;25.60;;;6.50;99.90;;;;;;5071239;28;20410;-75
2023/12/15 05:09:58;;;;;;;54.08;26.27;;;6.60;99.90;;;;;;5070161;28;20391;-73
2023/12/15 05:12:24;;;;;;;46.25;25.55;;;6.60;99.90;;;;;;5065675;28;20390;-74
2023/12/15 05:14:49;;;;;;;45.30;24.63;;;6.70;99.90;;;;;;5050666;28;20378;-74
2023/12/15 05:17:17;;;;;;;45.83;24.80;;;6.60;99.90;;;;;;5051313;28;20450;-73
2023/12/15 05:19:43;;;;;;;48.77;24.20;;;6.60;99.90;;;;;;5033453;28;20409;-73
2023/12/15 05:22:08;;;;;;;44.50;24.50;;;6.60;99.90;;;;;;5033147;28;20389;-73
2023/12/15 05:24:34;;;;;;;44.10;24.87;;;6.90;99.90;;;;;;5033129;28;20401;-74
2023/12/15 05:27:00;;;;;;;42.78;25.45;;;6.80;99.90;;;;;;5051775;28;20427;-73
2023/12/15 05:29:26;;;;;;;47.70;25.27;;;6.70;99.90;;;;;;5051247;28;20856;-73
2023/12/15 05:31:51;;;;;;;50.50;26.30;;;6.60;99.90;;;;;;5050592;28;20407;-73
2023/12/15 05:34:17;;;;;;;48.40;26.10;;;6.60;99.90;;;;;;5050793;28;20457;-73
2023/12/15 05:36:42;;;;;;;51.63;26.00;;;6.60;99.90;;;;;;5050563;28;20393;-72
2023/12/15 05:39:08;;;;;;;49.17;27.07;;;6.70;99.90;;;;;;5050820;28;20396;-73
2023/12/15 05:41:33;;;;;;;49.45;25.30;;;6.80;99.90;;;;;;5050758;28;20938;-73
2023/12/15 05:43:59;;;;;;;45.05;24.83;;;6.70;99.90;;;;;;5050488;28;20781;-73
2023/12/15 05:46:25;;;;;;;47.70;25.63;;;6.70;99.90;;;;;;5050714;28;20407;-74
2023/12/15 05:48:50;;;;;;;48.47;25.90;;;6.80;99.90;;;;;;5050724;28;20385;-74
2023/12/15 05:51:16;;;;;;;45.87;26.93;;;6.80;99.90;;;;;;5050527;28;20386;-72
2023/12/15 05:53:42;;;;;;;44.53;26.43;;;6.80;99.90;;;;;;5050689;28;20398;-74
2023/12/15 05:56:08;;;;;;;45.93;24.80;;;6.90;99.90;;;;;;5051359;28;20377;-73
2023/12/15 05:58:33;;;;;;;51.22;25.75;;;6.80;99.90;;;;;;5053175;28;20377;-74
2023/12/15 06:00:59;;;;;;;46.63;25.70;;;6.80;99.90;;;;;;5054116;28;20388;-72
2023/12/15 06:03:25;;;;;;;52.30;27.65;;;6.80;99.90;;;;;;5065296;28;20377;-72
2023/12/15 06:05:50;;;;;;;48.28;27.85;;;6.80;99.90;;;;;;5045791;28;20487;-72
2023/12/15 06:08:16;;;;;;;54.67;27.80;;;6.80;99.90;;;;;;5062958;28;20392;-74
2023/12/15 06:10:42;;;;;;;51.53;27.70;;;6.80;99.90;;;;;;5056270;28;20431;-73
2023/12/15 06:13:07;;;;;;;49.55;26.13;;;6.90;99.90;;;;;;5050807;28;20887;-73
2023/12/15 06:15:33;;;;;;;55.80;27.55;;;6.90;99.90;;;;;;5050621;28;20420;-74
2023/12/15 06:17:59;;;;;;;49.97;26.02;;;6.80;99.90;;;;;;5050617;28;20443;-74
2023/12/15 06:20:25;;;;;;;51.20;27.58;;;6.80;99.90;;;;;;5050940;28;20784;-74
2023/12/15 06:22:51;;;;;;;51.03;26.07;;;6.90;99.90;;;;;;5052796;28;20385;-73
2023/12/15 06:25:17;;;;;;;50.40;27.60;;;7.10;99.90;;;;;;5064130;28;20389;-73
2023/12/15 06:27:42;;;;;;;47.15;25.90;;;7.10;99.90;;;;;;5069213;28;20530;-73
2023/12/15 06:30:08;;;;;;;44.70;25.40;;;7.10;99.90;;;;;;5069313;28;20476;-73
2023/12/15 06:32:35;;;;;;;53.07;27.60;;;7.20;99.90;;;;;;5067994;28;20382;-72
2023/12/15 06:35:00;;;;;;;54.95;28.20;;;7.10;99.90;;;;;;5060310;28;20430;-73
2023/12/15 06:37:26;;;;;;;53.20;26.20;;;7.10;99.90;;;;;;5054047;28;20438;-73
2023/12/15 06:39:51;;;;;;;48.70;24.03;;;7.00;99.90;;;;;;5054482;28;20851;-75
2023/12/15 06:42:17;;;;;;;45.77;25.07;;;7.30;99.90;;;;;;5048460;28;20393;-74
2023/12/15 06:44:42;;;;;;;44.30;24.30;;;7.60;99.90;;;;;;5065762;28;20872;-73
2023/12/15 06:47:08;;;;;;;42.80;23.20;;;7.60;99.90;;;;;;5065132;28;20472;-74
2023/12/15 06:49:34;;;;;;;44.53;23.50;;;7.70;99.90;;;;;;5065312;28;20487;-73
2023/12/15 06:51:59;;;;;;;44.13;23.40;;;7.90;99.90;;;;;;5036336;28;20461;-73
2023/12/15 06:54:25;;;;;;;38.85;22.02;;;7.90;99.90;;;;;;5053492;28;20391;-72
2023/12/15 06:56:51;;;;;;;42.50;23.20;;;8.20;99.90;;;;;;5053991;28;20806;-73
2023/12/15 06:59:17;;;;;;;47.97;24.00;;;8.20;98.00;;;;;;5053430;28;20397;-73
2023/12/15 07:01:42;;;;;;;54.07;24.67;;;8.00;99.90;;;;;;5053609;28;20531;-73
2023/12/15 07:04:08;;;;;;;48.07;23.97;;;8.00;99.90;;;;;;5053258;28;20464;-73
2023/12/15 07:06:33;;;;;;;43.30;22.77;;;8.10;99.90;;;;;;5053048;28;20433;-74
2023/12/15 07:08:59;;;;;;;50.87;23.43;;;8.20;98.40;;;;;;5053454;28;20443;-72
2023/12/15 07:11:24;;;;;;;50.03;24.08;;;8.20;97.30;;;;;;5052944;28;20392;-73
2023/12/15 07:13:50;;;;;;;48.08;23.67;;;8.20;98.40;;;;;;5052656;28;20871;-73
2023/12/15 07:16:16;;;;;;;51.17;24.45;;;8.30;96.60;;;;;;5052996;28;20393;-73
2023/12/15 07:18:41;;;;;;;52.00;24.80;;;8.20;97.90;;;;;;5052721;28;20378;-73
2023/12/15 07:21:07;;;;;;;55.97;24.90;;;8.10;99.90;;;;;;5034687;28;20393;-74
2023/12/15 07:23:34;;;;;;;57.53;25.35;;;8.00;99.90;;;;;;5052640;28;20386;-73
2023/12/15 07:26:00;;;;;;;52.72;25.70;;;8.20;99.90;;;;;;5052134;28;20397;-73
2023/12/15 07:28:25;;;;;;;42.80;22.75;;;8.10;99.90;;;;;;5052615;28;20381;-74
2023/12/15 07:30:51;;;;;;;49.88;24.23;;;8.20;99.40;;;;;;5052725;28;20382;-73
2023/12/15 07:33:16;;;;;;;53.53;24.52;;;8.20;99.70;;;;;;5052371;28;20389;-72
2023/12/15 07:35:42;;;;;;;52.53;24.37;;;8.30;99.20;;;;;;5052371;28;20852;-73
2023/12/15 07:38:08;;;;;;;51.45;25.08;;;8.40;96.80;;;;;;5052322;28;20381;-73
2023/12/15 07:40:34;;;;;;;57.67;26.00;;;8.20;99.80;;;;;;5052106;28;20386;-74
2023/12/15 07:42:59;;;;;;;66.13;27.00;;;8.20;99.90;;;;;;5058525;28;20880;-74
2023/12/15 07:45:25;;;;;;;57.80;25.13;;;8.30;99.80;;;;;;5052121;28;20894;-74
2023/12/15 07:47:51;;;;;;;58.28;25.70;;;8.30;99.30;;;;;;5052258;28;20397;-74
2023/12/15 07:50:17;;;;;;;58.17;25.63;;;8.60;94.40;;;;;;5052305;28;20420;-73
2023/12/15 07:52:43;;;;;;;62.17;26.95;;;8.60;92.90;;;;;;5052707;28;20381;-73
2023/12/15 07:55:08;;;;;;;58.53;26.15;;;8.60;92.20;;;;;;5054743;28;20891;-73
2023/12/15 07:57:34;;;;;;;66.30;27.85;;;8.60;92.80;;;;;;5036013;28;20496;-74
2023/12/15 07:59:59;;;;;;;61.58;26.65;;;8.40;96.90;;;;;;5052480;28;20414;-73
2023/12/15 08:02:25;;;;;;;65.47;26.92;;;8.50;96.60;;;;;;5053253;28;20396;-74
2023/12/15 08:04:50;;;;;;;61.23;25.90;;;8.60;94.50;;;;;;5056241;28;20811;-74
2023/12/15 08:07:16;;;;;;;59.77;27.60;;;8.50;92.80;;;;;;5053380;28;20787;-73
2023/12/15 08:09:41;;;;;;;65.93;28.30;;;8.40;94.90;;;;;;5052801;28;20823;-74
2023/12/15 08:12:07;;;;;;;61.67;27.37;;;8.50;96.30;;;;;;5052855;28;20381;-72
2023/12/15 08:14:33;;;;;;;67.68;26.88;;;8.60;93.10;;;;;;5037135;28;20913;-73
2023/12/15 08:16:59;;;;;;;65.97;26.95;;;8.60;93.20;;;;;;5054292;28;20389;-73
2023/12/15 08:19:24;;;;;;;62.33;26.08;;;8.70;92.10;;;;;;5055154;28;20864;-75
2023/12/15 08:21:51;;;;;;;66.60;28.23;;;8.60;92.10;;;;;;5061507;28;20416;-74
2023/12/15 08:24:17;;;;;;;63.78;28.13;;;8.60;92.70;;;;;;5064694;28;20382;-74
2023/12/15 08:26:42;;;;;;;66.20;27.17;;;8.60;93.90;;;;;;5083925;22;20511;-75
2023/12/15 08:29:08;;;;;;;73.03;29.33;;;8.70;92.80;;;;;;5072891;28;20471;-75
2023/12/15 08:31:34;;;;;;;72.37;29.30;;;8.70;93.20;;;;;;5071036;28;20881;-75
2023/12/15 08:33:59;;;;;;;68.37;28.07;;;8.70;92.70;;;;;;5072455;28;20372;-77
2023/12/15 08:36:25;;;;;;;79.53;30.10;;;8.60;94.40;;;;;;5072235;28;20482;-75
2023/12/15 08:38:50;;;;;;;70.72;28.25;;;8.60;97.00;;;;;;5072656;28;20394;-75
2023/12/15 08:41:16;;;;;;;61.70;27.73;;;8.70;93.80;;;;;;5072367;28;20384;-74
2023/12/15 08:43:41;;;;;;;69.65;28.35;;;8.70;91.70;;;;;;5072303;28;20390;-74
2023/12/15 08:46:07;;;;;;;64.88;27.05;;;8.70;91.10;;;;;;5071667;28;20387;-74
2023/12/15 08:48:32;;;;;;;72.32;29.58;;;8.80;91.20;;;;;;5072307;28;20445;-73
2023/12/15 08:50:58;;;;;;;72.85;29.60;;;8.70;91.90;;;;;;5070715;28;20416;-75
2023/12/15 08:53:24;;;;;;;65.93;27.45;;;8.70;91.80;;;;;;5071931;28;20427;-75
2023/12/15 08:55:49;;;;;;;73.90;29.10;;;8.80;91.90;;;;;;5071629;28;20436;-74
2023/12/15 08:58:15;;;;;;;71.95;29.73;;;8.80;89.90;;;;;;5071626;28;20421;-74
2023/12/15 09:00:40;;;;;;;68.47;29.85;;;8.80;90.30;;;;;;5071388;28;20412;-74
2023/12/15 09:03:07;;;;;;;74.95;28.90;;;8.80;90.80;;;;;;5071323;28;20383;-74
2023/12/15 09:05:34;;;;;;;82.22;30.58;;;8.70;94.50;;;;;;5071938;28;20452;-74
2023/12/15 09:08:00;;;;;;;69.65;30.90;;;8.80;93.80;;;;;;5070357;28;20477;-74
2023/12/15 09:10:32;;;;;;;78.63;31.48;;;8.80;92.30;;;;;;5071616;28;20383;-75
2023/12/15 09:12:57;;;;;;;81.18;30.95;;;8.90;90.40;;;;;;5071480;28;20387;-74
2023/12/15 09:15:23;;;;;;;80.47;30.92;;;8.80;92.60;;;;;;5071266;28;20375;-74
2023/12/15 09:17:49;;;;;;;79.95;30.20;;;8.90;91.40;;;;;;5071346;28;20376;-75
2023/12/15 09:20:14;;;;;;;74.82;29.65;;;9.00;88.20;;;;;;5071713;28;20388;-75
2023/12/15 09:22:40;;;;;;;77.28;31.00;;;8.90;89.50;;;;;;5071266;28;20467;-75
2023/12/15 09:25:07;;;;;;;67.75;30.10;;;9.00;89.10;;;;;;5071019;28;20380;-75
2023/12/15 09:27:32;;;;;;;66.22;30.15;;;8.90;89.80;;;;;;5073070;28;20398;-73
2023/12/15 09:29:59;;;;;;;72.68;30.30;;;8.90;90.40;;;;;;5071044;28;20451;-74
2023/12/15 09:32:25;;;;;;;74.40;32.20;;;9.00;89.70;;;;;;5071062;28;20388;-74
2023/12/15 09:34:51;;;;;;;69.88;29.77;;;9.00;89.20;;;;;;5070682;28;20386;-74
2023/12/15 09:37:16;;;;;;;75.87;30.20;;;9.10;88.40;;;;;;5070632;28;20380;-75
2023/12/15 09:39:42;;;;;;;78.73;30.80;;;9.10;88.00;;;;;;5070891;28;20395;-75
2023/12/15 09:42:07;;;;;;;80.53;32.60;;;9.00;88.50;;;;;;5070816;28;20463;-76
2023/12/15 09:44:33;;;;;;;69.97;31.10;;;9.20;85.40;;;;;;5070629;28;20386;-74
2023/12/15 09:46:58;;;;;;;71.13;30.80;;;9.20;84.20;;;;;;5072561;28;20455;-73
2023/12/15 09:49:25;;;;;;;69.50;29.38;;;9.30;82.80;;;;;;5074771;28;20437;-73
2023/12/15 09:51:51;;;;;;;73.18;31.02;;;9.40;81.60;;;;;;5072680;28;20889;-73
2023/12/15 09:54:18;;;;;;;65.72;29.15;;;9.30;82.50;;;;;;5071029;28;20383;-74
2023/12/15 09:56:46;;;;;;;71.03;30.13;;;9.20;85.40;;;;;;5071016;28;20456;-73
2023/12/15 09:59:12;;;;;;;72.57;29.90;;;9.10;87.50;;;;;;5071546;28;20415;-75
2023/12/15 10:01:38;;;;;;;75.20;29.88;;;9.30;85.80;;;;;;5076668;28;20869;-75
2023/12/15 10:04:05;;;;;;;73.37;31.00;;;9.40;84.10;;;;;;5075894;28;20398;-76
2023/12/15 10:06:34;;;;;;;69.82;31.25;;;9.30;84.10;;;;;;5078855;28;20416;-73
2023/12/15 10:08:59;;;;;;;72.55;30.92;;;9.50;83.10;;;;;;5077779;28;20379;-75
2023/12/15 10:11:27;;;;;;;75.03;31.27;;;9.60;81.70;;;;;;5079244;28;20383;-76
2023/12/15 10:13:54;;;;;;;69.30;30.27;;;9.60;79.50;;;;;;5078187;28;20386;-74
2023/12/15 10:16:20;;;;;;;73.05;30.52;;;9.40;84.40;;;;;;5078867;28;20433;-74
2023/12/15 10:18:46;;;;;;;71.18;29.92;;;9.70;79.70;;;;;;5079142;28;20399;-74
2023/12/15 10:21:12;;;;;;;66.27;30.10;;;9.80;75.80;;;;;;5082427;28;20486;-75
2023/12/15 10:23:38;;;;;;;84.87;38.47;;;9.80;76.10;;;;;;5075829;28;20494;-74
2023/12/15 10:26:04;;;;;;;71.27;31.13;;;9.60;80.10;;;;;;5074174;28;20411;-76
2023/12/15 10:28:38;;;;;;;74.88;31.67;;;9.70;79.80;;;;;;5074320;28;20380;-74
2023/12/15 10:31:07;;;;;;;69.85;31.25;;;9.60;78.10;;;;;;5074378;28;20415;-75
2023/12/15 10:33:34;;;;;;;71.15;30.70;;;9.50;80.20;;;;;;5074710;28;20854;-73
2023/12/15 10:36:00;;;;;;;74.30;30.35;;;9.60;81.30;;;;;;5073970;28;20395;-75
2023/12/15 10:38:30;;;;;;;75.65;30.13;;;9.70;79.70;;;;;;5073886;28;20390;-74
2023/12/15 10:40:57;;;;;;;70.97;31.73;;;9.80;77.20;;;;;;5074073;28;20463;-75
2023/12/15 10:43:23;;;;;;;71.15;30.83;;;9.70;77.90;;;;;;5074572;28;20436;-74
2023/12/15 10:45:51;;;;;;;77.63;31.85;;;9.80;77.00;;;;;;5072853;28;20434;-75
2023/12/15 10:48:18;;;;;;;69.50;30.73;;;9.90;76.30;;;;;;5074250;28;20510;-76
2023/12/15 10:50:45;;;;;;;71.60;30.20;;;10.00;74.50;;;;;;5074290;28;20821;-75
2023/12/15 10:53:13;;;;;;;68.10;29.63;;;10.10;73.00;;;;;;5073891;28;20390;-74
2023/12/15 10:55:45;;;;;;;64.25;29.60;;;10.20;71.00;;;;;;5074945;28;20430;-73
2023/12/15 10:58:12;;;;;;;71.72;28.73;;;10.00;73.70;;;;;;5078784;28;20384;-75
2023/12/15 11:00:38;;;;;;;77.97;30.92;;;10.00;74.60;;;;;;5079906;28;20390;-75
2023/12/15 11:03:10;;;;;;;66.18;30.27;;;9.90;75.90;;;;;;5073704;28;20517;-76
2023/12/15 11:05:37;;;;;;;73.47;30.52;;;10.00;74.10;;;;;;5074004;28;20376;-75
2023/12/15 11:08:03;;;;;;;79.97;30.30;;;10.10;73.30;;;;;;5071982;28;20905;-75
2023/12/15 11:10:28;;;;;;;76.60;31.42;;;10.00;73.80;;;;;;5076502;28;20379;-74
2023/12/15 11:12:54;;;;;;;71.95;29.25;;;10.10;73.40;;;;;;5076118;28;20382;-74
2023/12/15 11:15:22;;;;;;;66.13;29.20;;;10.40;71.80;;;;;;5071992;28;20379;-74
2023/12/15 11:17:56;;;;;;;71.45;30.35;;;10.30;72.30;;;;;;5073198;28;20719;-74
2023/12/15 11:20:23;;;;;;;72.05;29.90;;;10.30;71.20;;;;;;5073882;28;20388;-75
2023/12/15 11:23:06;;;;;;;77.25;29.70;;;10.30;68.40;;;;;;5073426;28;20379;-74
2023/12/15 11:25:37;;;;;;;80.07;30.55;;;10.20;71.00;;;;;;5071844;28;20400;-73
2023/12/15 11:28:08;;;;;;;67.60;30.52;;;10.30;71.10;;;;;;5073459;28;20417;-75
2023/12/15 11:30:36;;;;;;;76.18;30.33;;;10.30;70.30;;;;;;5072332;28;20469;-76
2023/12/15 11:33:24;;;;;;;73.50;30.63;;;10.30;68.50;;;;;;5073648;28;20758;-76
2023/12/15 11:35:54;;;;;;;71.77;29.47;;;10.30;69.90;;;;;;5073246;28;20380;-76
2023/12/15 11:38:20;;;;;;;74.65;29.63;;;10.20;72.60;;;;;;5073635;28;20882;-75
2023/12/15 11:40:48;;;;;;;75.05;28.67;;;10.30;71.40;;;;;;5076214;28;20416;-73
2023/12/15 11:43:14;;;;;;;68.78;28.77;;;10.40;68.40;;;;;;5074301;28;20695;-75
2023/12/15 11:45:42;;;;;;;69.90;29.53;;;10.50;67.50;;;;;;5073107;28;20388;-75
2023/12/15 11:48:09;;;;;;;81.78;30.88;;;10.60;67.00;;;;;;5073667;28;20404;-75
2023/12/15 11:50:35;;;;;;;75.45;30.85;;;10.30;69.90;;;;;;5074034;28;20454;-75
2023/12/15 11:53:05;;;;;;;80.85;31.00;;;10.20;71.90;;;;;;5073456;28;20412;-74
2023/12/15 11:55:31;;;;;;;64.80;29.10;;;10.10;74.30;;;;;;5073330;28;20470;-76
2023/12/15 11:57:56;;;;;;;71.33;31.77;;;10.20;70.50;;;;;;5073187;28;20419;-74
2023/12/15 12:00:22;;;;;;;63.67;28.23;;;10.30;69.60;;;;;;5073222;28;20448;-74
2023/12/15 12:02:48;;;;;;;66.90;30.30;;;10.30;69.20;;;;;;5072694;28;20407;-75
2023/12/15 12:05:14;;;;;;;68.60;29.90;;;10.40;68.30;;;;;;5072419;28;20412;-74
2023/12/15 12:07:40;;;;;;;67.35;30.30;;;10.30;69.60;;;;;;5071188;28;20485;-75
2023/12/15 12:10:06;;;;;;;71.30;31.13;;;10.40;68.00;;;;;;5072659;28;20384;-76
2023/12/15 12:12:33;;;;;;;67.90;29.15;;;10.20;69.90;;;;;;5072334;28;20788;-74
2023/12/15 12:15:07;;;;;;;76.73;32.00;;;10.20;72.00;;;;;;5072070;28;20441;-75
2023/12/15 12:17:33;;;;;;;71.40;30.50;;;10.10;73.60;;;;;;5073600;28;20384;-76
2023/12/15 12:20:11;;;;;;;72.70;29.93;;;10.10;74.40;;;;;;5072578;28;20471;-74
2023/12/15 12:22:41;;;;;;;72.30;31.05;;;10.30;72.90;;;;;;5071576;28;20858;-75
2023/12/15 12:25:13;;;;;;;66.57;29.50;;;10.30;72.90;;;;;;5072105;28;20395;-75
2023/12/15 12:27:40;;;;;;;70.10;29.95;;;10.30;72.80;;;;;;5072408;28;20816;-72
2023/12/15 12:30:17;;;;;;;64.82;29.30;;;10.50;69.60;;;;;;5072298;28;20380;-74